Wallington, NJ (07057)

9:47 PM EST on February 01, 2015 (GMT -0500)
Wallington Weather Station Gaweda | Change Station
CLOSE
Current Station
Personal Weather Station
Location: Wallington, NJ
Elevation: 23 ft
Nearby Weather Stations
Active Advisory: Winter Storm Warning

Elev 23 ft 40.85 °N, 74.11 °W | Updated 5 seconds ago

Light Snow
Light Snow Mist
31.6 °F
Feels Like 32 °F
N
1.0
Wind Variable Wind from SSW
Gusts 2.0 mph

Today
High -- | Low -- °F
--% Chance of Precip.
Yesterday
High -- | Low -- °F
Precip. -- in
7:06 AM 5:13 PM
Waxing Gibbous, 97% visible
Pressure 30.05 in
Visibility 2.0 miles
Clouds Overcast 2800 ft
Windchill 32 °F
Dew Point 30 °F
Humidity 92%
Rainfall 0.00 in
Snow Depth Not available.
UV 0 out of 12
Pollen .10 out of 12
Air Quality Not available.
Flu Activity Not available.
SPECI KTEB 020241Z 00000KT 2SM -SN BR OVC028 00/M03 A3005 RMK AO2 P0000

More Conditions Fewer Conditions

Pressure 30.05 in
Visibility 2.0 miles
Clouds Overcast 2800 ft
Windchill 32 °F
Dew Point 30 °F
Humidity 92%
Rainfall 0.00 in
Snow Depth Not available.
UV 0 out of 12
Pollen .10 out of 12
Air Quality Not available.
Flu Activity Not available.
SPECI KTEB 020241Z 00000KT 2SM -SN BR OVC028 00/M03 A3005 RMK AO2 P0000

More Conditions Fewer Conditions

10-Day Weather Forecast

Almanac

Astronomy

Feb. 01, 2015 Rise Set
Actual Time
Civil Twilight
Nautical Twilight
Astronomical Twilight
Moon
Length of Visible Light
Length of Day
Tomorrow will be .
, % of the Moon is Illuminated

Today's Extremes

State Highs State Lows

Community

WunderPhotos

Upload Photos

1,792,659 photos uploaded!

WunderBlogs® & News

Nearby

Air Quality

  Air Quality AQ Index Pollutant
Not available.

Snow Depth

Station Depth Elevation

Earthquake Activity

City Distance Mag. Time & Date
Minimum magnitude displayed is 2.5.

Coastal Water Temperatures

Place Temperature

Nearby Weather Stations